sensor_id;sensor_type;location;lat;lon;timestamp;P1;durP1;ratioP1;P2;durP2;ratioP2
3070;SDS011;1546;47.208;9.038;2022-09-27T00:02:04;4.35;;;2.72;;
3070;SDS011;1546;47.208;9.038;2022-09-27T00:04:31;5.95;;;2.58;;
3070;SDS011;1546;47.208;9.038;2022-09-27T00:06:58;6.13;;;3.15;;
3070;SDS011;1546;47.208;9.038;2022-09-27T00:09:26;5.20;;;2.42;;
3070;SDS011;1546;47.208;9.038;2022-09-27T00:11:53;5.05;;;2.40;;
3070;SDS011;1546;47.208;9.038;2022-09-27T00:14:21;4.47;;;2.72;;
3070;SDS011;1546;47.208;9.038;2022-09-27T00:16:48;5.13;;;2.67;;
3070;SDS011;1546;47.208;9.038;2022-09-27T00:19:16;6.15;;;2.50;;
3070;SDS011;1546;47.208;9.038;2022-09-27T00:21:46;3.50;;;1.75;;
3070;SDS011;1546;47.208;9.038;2022-09-27T00:24:15;5.38;;;2.40;;
3070;SDS011;1546;47.208;9.038;2022-09-27T00:26:43;4.30;;;2.30;;
3070;SDS011;1546;47.208;9.038;2022-09-27T00:29:11;3.80;;;1.90;;
3070;SDS011;1546;47.208;9.038;2022-09-27T00:31:39;4.30;;;2.25;;
3070;SDS011;1546;47.208;9.038;2022-09-27T00:34:07;5.43;;;3.05;;
3070;SDS011;1546;47.208;9.038;2022-09-27T00:36:41;5.68;;;2.85;;
3070;SDS011;1546;47.208;9.038;2022-09-27T00:39:08;4.53;;;2.40;;
3070;SDS011;1546;47.208;9.038;2022-09-27T00:41:36;5.55;;;2.85;;
3070;SDS011;1546;47.208;9.038;2022-09-27T00:44:52;4.45;;;2.47;;
3070;SDS011;1546;47.208;9.038;2022-09-27T00:47:11;5.72;;;2.78;;
3070;SDS011;1546;47.208;9.038;2022-09-27T00:49:44;5.05;;;2.20;;
3070;SDS011;1546;47.208;9.038;2022-09-27T00:52:15;4.30;;;2.60;;
3070;SDS011;1546;47.208;9.038;2022-09-27T00:54:51;4.25;;;2.33;;
3070;SDS011;1546;47.208;9.038;2022-09-27T00:57:22;5.13;;;2.67;;
3070;SDS011;1546;47.208;9.038;2022-09-27T00:59:50;5.85;;;2.35;;
3070;SDS011;1546;47.208;9.038;2022-09-27T01:02:21;6.28;;;3.00;;
3070;SDS011;1546;47.208;9.038;2022-09-27T01:04:48;5.15;;;2.50;;
3070;SDS011;1546;47.208;9.038;2022-09-27T01:07:17;5.60;;;2.65;;
3070;SDS011;1546;47.208;9.038;2022-09-27T01:09:44;6.35;;;2.90;;
3070;SDS011;1546;47.208;9.038;2022-09-27T01:12:13;5.30;;;3.65;;
3070;SDS011;1546;47.208;9.038;2022-09-27T01:14:52;6.20;;;3.88;;
3070;SDS011;1546;47.208;9.038;2022-09-27T01:17:34;4.75;;;3.20;;
3070;SDS011;1546;47.208;9.038;2022-09-27T01:20:20;6.28;;;3.00;;
3070;SDS011;1546;47.208;9.038;2022-09-27T01:23:02;5.55;;;3.00;;
3070;SDS011;1546;47.208;9.038;2022-09-27T01:25:46;4.88;;;3.38;;
3070;SDS011;1546;47.208;9.038;2022-09-27T01:28:28;5.05;;;2.97;;
3070;SDS011;1546;47.208;9.038;2022-09-27T01:31:08;5.43;;;3.40;;
3070;SDS011;1546;47.208;9.038;2022-09-27T01:33:43;5.07;;;3.13;;
3070;SDS011;1546;47.208;9.038;2022-09-27T01:36:19;4.55;;;2.35;;
3070;SDS011;1546;47.208;9.038;2022-09-27T01:38:56;4.93;;;2.58;;
3070;SDS011;1546;47.208;9.038;2022-09-27T01:41:35;10.25;;;4.18;;
3070;SDS011;1546;47.208;9.038;2022-09-27T01:44:10;6.07;;;3.22;;
3070;SDS011;1546;47.208;9.038;2022-09-27T01:46:47;4.50;;;2.70;;
3070;SDS011;1546;47.208;9.038;2022-09-27T01:49:24;5.15;;;2.85;;
3070;SDS011;1546;47.208;9.038;2022-09-27T01:51:57;4.55;;;2.30;;
3070;SDS011;1546;47.208;9.038;2022-09-27T01:54:27;4.10;;;2.60;;
3070;SDS011;1546;47.208;9.038;2022-09-27T01:56:57;4.32;;;2.80;;
3070;SDS011;1546;47.208;9.038;2022-09-27T01:59:27;8.25;;;2.80;;
3070;SDS011;1546;47.208;9.038;2022-09-27T02:02:01;5.82;;;3.35;;
3070;SDS011;1546;47.208;9.038;2022-09-27T02:04:33;11.75;;;4.88;;
3070;SDS011;1546;47.208;9.038;2022-09-27T02:07:05;5.03;;;2.72;;
3070;SDS011;1546;47.208;9.038;2022-09-27T02:09:37;5.97;;;3.30;;
3070;SDS011;1546;47.208;9.038;2022-09-27T02:12:08;5.35;;;2.58;;
3070;SDS011;1546;47.208;9.038;2022-09-27T02:14:39;6.85;;;3.45;;
3070;SDS011;1546;47.208;9.038;2022-09-27T02:17:13;4.75;;;2.92;;
3070;SDS011;1546;47.208;9.038;2022-09-27T02:19:51;4.43;;;2.40;;
3070;SDS011;1546;47.208;9.038;2022-09-27T02:22:23;5.43;;;2.95;;
3070;SDS011;1546;47.208;9.038;2022-09-27T02:24:57;4.43;;;2.30;;
3070;SDS011;1546;47.208;9.038;2022-09-27T02:27:28;4.45;;;2.50;;
3070;SDS011;1546;47.208;9.038;2022-09-27T02:29:59;4.47;;;3.05;;
3070;SDS011;1546;47.208;9.038;2022-09-27T02:32:31;5.10;;;3.55;;
3070;SDS011;1546;47.208;9.038;2022-09-27T02:34:59;5.13;;;3.20;;
3070;SDS011;1546;47.208;9.038;2022-09-27T02:37:30;4.18;;;2.30;;
3070;SDS011;1546;47.208;9.038;2022-09-27T02:39:58;4.78;;;2.92;;
3070;SDS011;1546;47.208;9.038;2022-09-27T02:42:25;4.65;;;2.95;;
3070;SDS011;1546;47.208;9.038;2022-09-27T02:44:53;4.47;;;2.97;;
3070;SDS011;1546;47.208;9.038;2022-09-27T02:47:24;5.10;;;2.83;;
3070;SDS011;1546;47.208;9.038;2022-09-27T02:50:05;8.80;;;4.40;;
3070;SDS011;1546;47.208;9.038;2022-09-27T02:52:53;5.25;;;2.85;;
3070;SDS011;1546;47.208;9.038;2022-09-27T02:55:34;6.30;;;3.35;;
3070;SDS011;1546;47.208;9.038;2022-09-27T02:58:11;6.95;;;4.13;;
3070;SDS011;1546;47.208;9.038;2022-09-27T03:00:50;7.63;;;4.03;;
3070;SDS011;1546;47.208;9.038;2022-09-27T03:03:25;7.55;;;4.32;;
3070;SDS011;1546;47.208;9.038;2022-09-27T03:06:00;4.68;;;2.83;;
3070;SDS011;1546;47.208;9.038;2022-09-27T03:08:29;4.07;;;2.33;;
3070;SDS011;1546;47.208;9.038;2022-09-27T03:10:56;5.60;;;3.60;;
3070;SDS011;1546;47.208;9.038;2022-09-27T03:13:23;4.22;;;2.78;;
3070;SDS011;1546;47.208;9.038;2022-09-27T03:15:51;7.20;;;3.42;;
3070;SDS011;1546;47.208;9.038;2022-09-27T03:18:17;4.30;;;2.72;;
3070;SDS011;1546;47.208;9.038;2022-09-27T03:20:44;7.25;;;3.40;;
3070;SDS011;1546;47.208;9.038;2022-09-27T03:23:13;5.63;;;2.63;;
3070;SDS011;1546;47.208;9.038;2022-09-27T03:25:39;5.40;;;3.75;;
3070;SDS011;1546;47.208;9.038;2022-09-27T03:28:06;5.78;;;4.78;;
3070;SDS011;1546;47.208;9.038;2022-09-27T03:30:33;5.25;;;4.75;;
3070;SDS011;1546;47.208;9.038;2022-09-27T03:33:01;7.13;;;6.53;;
3070;SDS011;1546;47.208;9.038;2022-09-27T03:35:28;6.57;;;5.00;;
3070;SDS011;1546;47.208;9.038;2022-09-27T03:37:56;6.75;;;6.07;;
3070;SDS011;1546;47.208;9.038;2022-09-27T03:40:24;5.25;;;4.60;;
3070;SDS011;1546;47.208;9.038;2022-09-27T03:42:51;5.20;;;4.70;;
3070;SDS011;1546;47.208;9.038;2022-09-27T03:45:17;4.93;;;4.05;;
3070;SDS011;1546;47.208;9.038;2022-09-27T03:47:44;4.32;;;3.92;;
3070;SDS011;1546;47.208;9.038;2022-09-27T03:50:12;5.00;;;4.60;;
3070;SDS011;1546;47.208;9.038;2022-09-27T03:52:39;5.55;;;5.05;;
3070;SDS011;1546;47.208;9.038;2022-09-27T03:55:08;4.28;;;3.97;;
3070;SDS011;1546;47.208;9.038;2022-09-27T03:57:37;3.78;;;3.47;;
3070;SDS011;1546;47.208;9.038;2022-09-27T04:00:04;4.65;;;4.25;;
3070;SDS011;1546;47.208;9.038;2022-09-27T04:02:32;3.45;;;3.15;;
3070;SDS011;1546;47.208;9.038;2022-09-27T04:04:59;4.78;;;4.38;;
3070;SDS011;1546;47.208;9.038;2022-09-27T04:07:26;2.90;;;1.83;;
3070;SDS011;1546;47.208;9.038;2022-09-27T04:09:53;3.05;;;2.17;;
3070;SDS011;1546;47.208;9.038;2022-09-27T04:12:20;5.63;;;3.05;;
3070;SDS011;1546;47.208;9.038;2022-09-27T04:14:49;4.38;;;2.60;;
3070;SDS011;1546;47.208;9.038;2022-09-27T04:17:16;3.13;;;2.63;;
3070;SDS011;1546;47.208;9.038;2022-09-27T04:19:43;3.85;;;2.00;;
3070;SDS011;1546;47.208;9.038;2022-09-27T04:22:10;2.78;;;1.10;;
3070;SDS011;1546;47.208;9.038;2022-09-27T04:24:37;3.20;;;1.60;;
3070;SDS011;1546;47.208;9.038;2022-09-27T04:27:04;3.45;;;1.13;;
3070;SDS011;1546;47.208;9.038;2022-09-27T04:29:32;5.72;;;1.83;;
3070;SDS011;1546;47.208;9.038;2022-09-27T04:32:00;5.30;;;1.42;;
3070;SDS011;1546;47.208;9.038;2022-09-27T04:34:27;3.20;;;1.48;;
3070;SDS011;1546;47.208;9.038;2022-09-27T04:37:07;6.60;;;1.60;;
3070;SDS011;1546;47.208;9.038;2022-09-27T04:39:35;4.35;;;1.17;;
3070;SDS011;1546;47.208;9.038;2022-09-27T04:42:03;3.45;;;0.98;;
3070;SDS011;1546;47.208;9.038;2022-09-27T04:44:31;2.80;;;1.00;;
3070;SDS011;1546;47.208;9.038;2022-09-27T04:46:57;3.78;;;1.95;;
3070;SDS011;1546;47.208;9.038;2022-09-27T04:49:25;3.70;;;1.20;;
3070;SDS011;1546;47.208;9.038;2022-09-27T04:51:52;4.05;;;1.08;;
3070;SDS011;1546;47.208;9.038;2022-09-27T04:54:20;3.78;;;1.10;;
3070;SDS011;1546;47.208;9.038;2022-09-27T04:56:47;3.13;;;1.10;;
3070;SDS011;1546;47.208;9.038;2022-09-27T04:59:14;5.00;;;1.38;;
3070;SDS011;1546;47.208;9.038;2022-09-27T05:01:41;6.25;;;2.30;;
3070;SDS011;1546;47.208;9.038;2022-09-27T05:04:09;6.85;;;1.70;;
3070;SDS011;1546;47.208;9.038;2022-09-27T05:06:36;6.90;;;1.98;;
3070;SDS011;1546;47.208;9.038;2022-09-27T05:09:03;3.15;;;1.17;;
3070;SDS011;1546;47.208;9.038;2022-09-27T05:11:30;3.40;;;1.00;;
3070;SDS011;1546;47.208;9.038;2022-09-27T05:13:56;3.72;;;1.00;;
3070;SDS011;1546;47.208;9.038;2022-09-27T05:16:23;2.90;;;1.00;;
3070;SDS011;1546;47.208;9.038;2022-09-27T05:18:50;2.50;;;1.00;;
3070;SDS011;1546;47.208;9.038;2022-09-27T05:21:18;3.38;;;0.90;;
3070;SDS011;1546;47.208;9.038;2022-09-27T05:23:45;2.67;;;0.80;;
3070;SDS011;1546;47.208;9.038;2022-09-27T05:26:12;2.30;;;0.70;;
3070;SDS011;1546;47.208;9.038;2022-09-27T05:28:39;2.30;;;0.70;;
3070;SDS011;1546;47.208;9.038;2022-09-27T05:31:07;3.58;;;0.90;;
3070;SDS011;1546;47.208;9.038;2022-09-27T05:33:35;2.53;;;0.75;;
3070;SDS011;1546;47.208;9.038;2022-09-27T05:36:02;2.40;;;0.90;;
3070;SDS011;1546;47.208;9.038;2022-09-27T05:38:30;3.03;;;1.35;;
3070;SDS011;1546;47.208;9.038;2022-09-27T05:40:57;2.83;;;1.10;;
3070;SDS011;1546;47.208;9.038;2022-09-27T05:43:24;2.80;;;0.90;;
3070;SDS011;1546;47.208;9.038;2022-09-27T05:45:52;6.22;;;1.40;;
3070;SDS011;1546;47.208;9.038;2022-09-27T05:48:19;2.65;;;0.93;;
3070;SDS011;1546;47.208;9.038;2022-09-27T05:50:46;3.97;;;1.05;;
3070;SDS011;1546;47.208;9.038;2022-09-27T05:53:13;2.85;;;0.90;;
3070;SDS011;1546;47.208;9.038;2022-09-27T05:55:41;2.88;;;0.82;;
3070;SDS011;1546;47.208;9.038;2022-09-27T05:58:08;3.70;;;1.02;;
3070;SDS011;1546;47.208;9.038;2022-09-27T06:00:37;3.03;;;1.10;;
3070;SDS011;1546;47.208;9.038;2022-09-27T06:03:05;3.67;;;1.20;;
3070;SDS011;1546;47.208;9.038;2022-09-27T06:05:33;3.95;;;1.60;;
3070;SDS011;1546;47.208;9.038;2022-09-27T06:08:02;2.33;;;0.80;;
3070;SDS011;1546;47.208;9.038;2022-09-27T06:10:31;2.75;;;1.27;;
3070;SDS011;1546;47.208;9.038;2022-09-27T06:12:59;3.20;;;1.15;;
3070;SDS011;1546;47.208;9.038;2022-09-27T06:15:27;4.35;;;1.10;;
3070;SDS011;1546;47.208;9.038;2022-09-27T06:17:55;3.15;;;1.60;;
3070;SDS011;1546;47.208;9.038;2022-09-27T06:20:22;2.85;;;0.82;;
3070;SDS011;1546;47.208;9.038;2022-09-27T06:22:49;2.75;;;1.00;;
3070;SDS011;1546;47.208;9.038;2022-09-27T06:25:18;3.03;;;1.33;;
3070;SDS011;1546;47.208;9.038;2022-09-27T06:27:45;4.53;;;1.27;;
3070;SDS011;1546;47.208;9.038;2022-09-27T06:30:13;2.63;;;0.90;;
3070;SDS011;1546;47.208;9.038;2022-09-27T06:32:40;5.22;;;1.20;;
3070;SDS011;1546;47.208;9.038;2022-09-27T06:35:07;4.97;;;1.70;;
3070;SDS011;1546;47.208;9.038;2022-09-27T06:37:34;3.25;;;0.90;;
3070;SDS011;1546;47.208;9.038;2022-09-27T06:40:01;5.78;;;1.58;;
3070;SDS011;1546;47.208;9.038;2022-09-27T06:42:29;4.22;;;1.30;;
3070;SDS011;1546;47.208;9.038;2022-09-27T06:44:56;2.80;;;1.02;;
3070;SDS011;1546;47.208;9.038;2022-09-27T06:47:24;3.10;;;1.33;;
3070;SDS011;1546;47.208;9.038;2022-09-27T06:49:51;2.50;;;0.80;;
3070;SDS011;1546;47.208;9.038;2022-09-27T06:52:18;4.07;;;1.10;;
3070;SDS011;1546;47.208;9.038;2022-09-27T06:54:44;4.22;;;0.80;;
3070;SDS011;1546;47.208;9.038;2022-09-27T06:57:11;3.08;;;1.10;;
3070;SDS011;1546;47.208;9.038;2022-09-27T06:59:59;3.05;;;1.02;;
3070;SDS011;1546;47.208;9.038;2022-09-27T07:02:46;3.30;;;0.90;;
3070;SDS011;1546;47.208;9.038;2022-09-27T07:05:12;2.60;;;0.60;;
3070;SDS011;1546;47.208;9.038;2022-09-27T07:07:39;3.67;;;0.90;;
3070;SDS011;1546;47.208;9.038;2022-09-27T07:10:08;3.15;;;1.02;;
3070;SDS011;1546;47.208;9.038;2022-09-27T07:12:35;2.60;;;0.80;;
3070;SDS011;1546;47.208;9.038;2022-09-27T07:15:02;2.97;;;0.77;;
3070;SDS011;1546;47.208;9.038;2022-09-27T07:17:30;4.63;;;1.00;;
3070;SDS011;1546;47.208;9.038;2022-09-27T07:19:58;2.95;;;0.80;;
3070;SDS011;1546;47.208;9.038;2022-09-27T07:22:26;5.22;;;1.10;;
3070;SDS011;1546;47.208;9.038;2022-09-27T07:24:53;3.72;;;0.90;;
3070;SDS011;1546;47.208;9.038;2022-09-27T07:27:20;3.75;;;0.80;;
3070;SDS011;1546;47.208;9.038;2022-09-27T07:29:49;2.50;;;0.75;;
3070;SDS011;1546;47.208;9.038;2022-09-27T07:32:16;2.30;;;0.70;;
3070;SDS011;1546;47.208;9.038;2022-09-27T07:34:43;2.60;;;0.70;;
3070;SDS011;1546;47.208;9.038;2022-09-27T07:37:11;3.85;;;0.70;;
3070;SDS011;1546;47.208;9.038;2022-09-27T07:39:38;5.00;;;0.70;;
3070;SDS011;1546;47.208;9.038;2022-09-27T07:42:04;2.63;;;0.95;;
3070;SDS011;1546;47.208;9.038;2022-09-27T07:44:31;4.88;;;0.88;;
3070;SDS011;1546;47.208;9.038;2022-09-27T07:46:58;3.28;;;1.00;;
3070;SDS011;1546;47.208;9.038;2022-09-27T07:49:25;4.50;;;1.17;;
3070;SDS011;1546;47.208;9.038;2022-09-27T07:51:52;2.70;;;1.00;;
3070;SDS011;1546;47.208;9.038;2022-09-27T07:54:20;3.70;;;1.30;;
3070;SDS011;1546;47.208;9.038;2022-09-27T07:56:47;3.38;;;1.42;;
3070;SDS011;1546;47.208;9.038;2022-09-27T07:59:14;5.32;;;1.85;;
3070;SDS011;1546;47.208;9.038;2022-09-27T08:01:41;3.88;;;1.38;;
3070;SDS011;1546;47.208;9.038;2022-09-27T08:04:08;3.22;;;1.30;;
3070;SDS011;1546;47.208;9.038;2022-09-27T08:06:34;2.80;;;1.10;;
3070;SDS011;1546;47.208;9.038;2022-09-27T08:09:04;3.50;;;1.02;;
3070;SDS011;1546;47.208;9.038;2022-09-27T08:11:32;2.50;;;1.10;;
3070;SDS011;1546;47.208;9.038;2022-09-27T08:13:59;4.35;;;0.90;;
3070;SDS011;1546;47.208;9.038;2022-09-27T08:16:26;3.47;;;1.77;;
3070;SDS011;1546;47.208;9.038;2022-09-27T08:18:53;3.08;;;1.15;;
3070;SDS011;1546;47.208;9.038;2022-09-27T08:21:20;3.75;;;1.10;;
3070;SDS011;1546;47.208;9.038;2022-09-27T08:23:46;2.70;;;1.55;;
3070;SDS011;1546;47.208;9.038;2022-09-27T08:26:13;3.55;;;1.73;;
3070;SDS011;1546;47.208;9.038;2022-09-27T08:28:41;4.00;;;1.77;;
3070;SDS011;1546;47.208;9.038;2022-09-27T08:31:08;3.53;;;1.17;;
3070;SDS011;1546;47.208;9.038;2022-09-27T08:33:35;4.22;;;1.33;;
3070;SDS011;1546;47.208;9.038;2022-09-27T08:36:02;5.50;;;1.30;;
3070;SDS011;1546;47.208;9.038;2022-09-27T08:38:29;4.82;;;1.50;;
3070;SDS011;1546;47.208;9.038;2022-09-27T08:40:56;2.90;;;1.52;;
3070;SDS011;1546;47.208;9.038;2022-09-27T08:43:33;2.55;;;1.00;;
3070;SDS011;1546;47.208;9.038;2022-09-27T08:46:09;4.88;;;1.25;;
3070;SDS011;1546;47.208;9.038;2022-09-27T08:48:46;4.40;;;1.15;;
3070;SDS011;1546;47.208;9.038;2022-09-27T08:51:20;6.47;;;1.00;;
3070;SDS011;1546;47.208;9.038;2022-09-27T08:53:52;4.07;;;1.63;;
3070;SDS011;1546;47.208;9.038;2022-09-27T08:56:23;3.70;;;1.00;;
3070;SDS011;1546;47.208;9.038;2022-09-27T08:58:50;3.17;;;0.70;;
3070;SDS011;1546;47.208;9.038;2022-09-27T09:01:25;4.05;;;0.98;;
3070;SDS011;1546;47.208;9.038;2022-09-27T09:03:53;6.03;;;1.95;;
3070;SDS011;1546;47.208;9.038;2022-09-27T09:06:23;2.83;;;0.88;;
3070;SDS011;1546;47.208;9.038;2022-09-27T09:08:56;2.63;;;1.08;;
3070;SDS011;1546;47.208;9.038;2022-09-27T09:11:33;2.67;;;0.80;;
3070;SDS011;1546;47.208;9.038;2022-09-27T09:14:30;2.60;;;0.90;;
3070;SDS011;1546;47.208;9.038;2022-09-27T09:17:13;3.17;;;1.00;;
3070;SDS011;1546;47.208;9.038;2022-09-27T09:19:54;5.32;;;1.20;;
3070;SDS011;1546;47.208;9.038;2022-09-27T09:22:32;3.10;;;1.33;;
3070;SDS011;1546;47.208;9.038;2022-09-27T09:25:14;3.20;;;1.10;;
3070;SDS011;1546;47.208;9.038;2022-09-27T09:27:58;2.50;;;0.80;;
3070;SDS011;1546;47.208;9.038;2022-09-27T09:30:35;3.33;;;1.20;;
3070;SDS011;1546;47.208;9.038;2022-09-27T09:33:12;2.53;;;1.00;;
3070;SDS011;1546;47.208;9.038;2022-09-27T09:35:44;2.75;;;1.00;;
3070;SDS011;1546;47.208;9.038;2022-09-27T09:38:17;9.55;;;1.50;;
3070;SDS011;1546;47.208;9.038;2022-09-27T09:40:48;3.03;;;1.10;;
3070;SDS011;1546;47.208;9.038;2022-09-27T09:43:23;4.05;;;1.45;;
3070;SDS011;1546;47.208;9.038;2022-09-27T09:45:54;5.60;;;1.38;;
3070;SDS011;1546;47.208;9.038;2022-09-27T09:48:29;3.70;;;1.42;;
3070;SDS011;1546;47.208;9.038;2022-09-27T09:51:04;6.53;;;0.98;;
3070;SDS011;1546;47.208;9.038;2022-09-27T09:53:35;3.70;;;1.02;;
3070;SDS011;1546;47.208;9.038;2022-09-27T09:56:07;4.65;;;1.00;;
3070;SDS011;1546;47.208;9.038;2022-09-27T09:58:40;2.58;;;0.85;;
3070;SDS011;1546;47.208;9.038;2022-09-27T10:01:13;4.30;;;0.80;;
3070;SDS011;1546;47.208;9.038;2022-09-27T10:03:45;3.75;;;0.82;;
3070;SDS011;1546;47.208;9.038;2022-09-27T10:06:13;3.08;;;0.90;;
3070;SDS011;1546;47.208;9.038;2022-09-27T10:08:42;3.70;;;1.10;;
3070;SDS011;1546;47.208;9.038;2022-09-27T10:11:13;4.50;;;1.20;;
3070;SDS011;1546;47.208;9.038;2022-09-27T10:13:45;6.85;;;0.98;;
3070;SDS011;1546;47.208;9.038;2022-09-27T10:16:13;2.50;;;0.90;;
3070;SDS011;1546;47.208;9.038;2022-09-27T10:18:42;2.95;;;1.17;;
3070;SDS011;1546;47.208;9.038;2022-09-27T10:21:12;3.55;;;0.95;;
3070;SDS011;1546;47.208;9.038;2022-09-27T10:26:31;4.05;;;0.95;;
3070;SDS011;1546;47.208;9.038;2022-09-27T10:29:11;3.78;;;0.93;;
3070;SDS011;1546;47.208;9.038;2022-09-27T10:31:41;4.25;;;0.93;;
3070;SDS011;1546;47.208;9.038;2022-09-27T10:34:16;8.20;;;1.80;;
3070;SDS011;1546;47.208;9.038;2022-09-27T10:36:48;3.40;;;0.90;;
3070;SDS011;1546;47.208;9.038;2022-09-27T10:39:27;2.80;;;0.77;;
3070;SDS011;1546;47.208;9.038;2022-09-27T10:41:54;3.88;;;1.20;;
3070;SDS011;1546;47.208;9.038;2022-09-27T10:44:23;2.45;;;0.77;;
3070;SDS011;1546;47.208;9.038;2022-09-27T10:46:52;3.80;;;0.95;;
3070;SDS011;1546;47.208;9.038;2022-09-27T10:49:23;3.35;;;1.00;;
3070;SDS011;1546;47.208;9.038;2022-09-27T10:51:54;2.80;;;0.80;;
3070;SDS011;1546;47.208;9.038;2022-09-27T10:54:23;5.07;;;1.60;;
3070;SDS011;1546;47.208;9.038;2022-09-27T10:56:53;3.63;;;0.93;;
3070;SDS011;1546;47.208;9.038;2022-09-27T10:59:22;3.95;;;0.98;;
3070;SDS011;1546;47.208;9.038;2022-09-27T11:01:49;2.90;;;1.00;;
3070;SDS011;1546;47.208;9.038;2022-09-27T11:04:22;3.05;;;1.00;;
3070;SDS011;1546;47.208;9.038;2022-09-27T11:06:55;3.47;;;1.05;;
3070;SDS011;1546;47.208;9.038;2022-09-27T11:09:43;3.85;;;1.10;;
3070;SDS011;1546;47.208;9.038;2022-09-27T11:12:11;3.40;;;0.80;;
3070;SDS011;1546;47.208;9.038;2022-09-27T11:14:39;2.97;;;0.90;;
3070;SDS011;1546;47.208;9.038;2022-09-27T11:17:12;4.75;;;0.80;;
3070;SDS011;1546;47.208;9.038;2022-09-27T11:19:48;3.22;;;0.90;;
3070;SDS011;1546;47.208;9.038;2022-09-27T11:22:30;3.33;;;1.00;;
3070;SDS011;1546;47.208;9.038;2022-09-27T11:25:09;2.95;;;0.82;;
3070;SDS011;1546;47.208;9.038;2022-09-27T11:27:48;3.45;;;0.90;;
3070;SDS011;1546;47.208;9.038;2022-09-27T11:30:24;3.97;;;1.00;;
3070;SDS011;1546;47.208;9.038;2022-09-27T11:33:07;2.67;;;0.80;;
3070;SDS011;1546;47.208;9.038;2022-09-27T11:35:52;3.60;;;1.13;;
3070;SDS011;1546;47.208;9.038;2022-09-27T11:38:29;7.85;;;1.55;;
3070;SDS011;1546;47.208;9.038;2022-09-27T11:41:04;9.30;;;1.38;;
3070;SDS011;1546;47.208;9.038;2022-09-27T11:43:44;2.75;;;0.70;;
3070;SDS011;1546;47.208;9.038;2022-09-27T11:46:27;3.67;;;0.60;;
3070;SDS011;1546;47.208;9.038;2022-09-27T11:49:00;4.53;;;1.15;;
3070;SDS011;1546;47.208;9.038;2022-09-27T11:51:46;2.92;;;0.70;;
3070;SDS011;1546;47.208;9.038;2022-09-27T11:54:41;3.65;;;0.60;;
3070;SDS011;1546;47.208;9.038;2022-09-27T11:57:28;2.20;;;0.60;;
3070;SDS011;1546;47.208;9.038;2022-09-27T12:00:03;2.40;;;0.63;;
3070;SDS011;1546;47.208;9.038;2022-09-27T12:02:55;2.50;;;0.60;;
3070;SDS011;1546;47.208;9.038;2022-09-27T12:05:59;2.72;;;0.80;;
3070;SDS011;1546;47.208;9.038;2022-09-27T12:08:43;2.38;;;0.65;;
3070;SDS011;1546;47.208;9.038;2022-09-27T12:11:20;4.75;;;0.60;;
3070;SDS011;1546;47.208;9.038;2022-09-27T12:13:51;3.10;;;0.65;;
3070;SDS011;1546;47.208;9.038;2022-09-27T12:16:21;2.20;;;0.60;;
3070;SDS011;1546;47.208;9.038;2022-09-27T12:18:51;3.75;;;0.95;;
3070;SDS011;1546;47.208;9.038;2022-09-27T12:21:19;2.65;;;0.60;;
3070;SDS011;1546;47.208;9.038;2022-09-27T12:23:48;3.03;;;0.80;;
3070;SDS011;1546;47.208;9.038;2022-09-27T12:26:17;2.45;;;0.65;;
3070;SDS011;1546;47.208;9.038;2022-09-27T12:28:50;3.20;;;0.80;;
3070;SDS011;1546;47.208;9.038;2022-09-27T12:31:20;2.30;;;0.60;;
3070;SDS011;1546;47.208;9.038;2022-09-27T12:33:55;8.70;;;0.80;;
3070;SDS011;1546;47.208;9.038;2022-09-27T12:36:30;4.60;;;0.82;;
3070;SDS011;1546;47.208;9.038;2022-09-27T12:39:01;3.17;;;0.80;;
3070;SDS011;1546;47.208;9.038;2022-09-27T12:41:35;2.40;;;0.60;;
3070;SDS011;1546;47.208;9.038;2022-09-27T12:44:06;2.40;;;0.70;;
3070;SDS011;1546;47.208;9.038;2022-09-27T12:46:38;4.35;;;0.60;;
3070;SDS011;1546;47.208;9.038;2022-09-27T12:49:18;2.60;;;0.70;;
3070;SDS011;1546;47.208;9.038;2022-09-27T12:51:53;2.40;;;0.60;;
3070;SDS011;1546;47.208;9.038;2022-09-27T12:54:45;2.90;;;0.68;;
3070;SDS011;1546;47.208;9.038;2022-09-27T12:57:36;3.50;;;0.75;;
3070;SDS011;1546;47.208;9.038;2022-09-27T13:00:11;2.80;;;0.70;;
3070;SDS011;1546;47.208;9.038;2022-09-27T13:02:57;3.40;;;0.80;;
3070;SDS011;1546;47.208;9.038;2022-09-27T13:05:49;3.05;;;0.70;;
3070;SDS011;1546;47.208;9.038;2022-09-27T13:08:32;3.20;;;0.60;;
3070;SDS011;1546;47.208;9.038;2022-09-27T13:11:10;2.80;;;0.73;;
3070;SDS011;1546;47.208;9.038;2022-09-27T13:13:44;2.35;;;0.60;;
3070;SDS011;1546;47.208;9.038;2022-09-27T13:16:11;3.50;;;0.77;;
3070;SDS011;1546;47.208;9.038;2022-09-27T13:18:52;2.90;;;0.80;;
3070;SDS011;1546;47.208;9.038;2022-09-27T13:36:12;2.60;;;0.65;;
3070;SDS011;1546;47.208;9.038;2022-09-27T13:38:51;2.50;;;0.80;;
3070;SDS011;1546;47.208;9.038;2022-09-27T13:41:25;4.07;;;0.90;;
3070;SDS011;1546;47.208;9.038;2022-09-27T13:43:59;3.35;;;1.15;;
3070;SDS011;1546;47.208;9.038;2022-09-27T13:46:32;4.57;;;1.00;;
3070;SDS011;1546;47.208;9.038;2022-09-27T13:49:02;2.65;;;0.80;;
3070;SDS011;1546;47.208;9.038;2022-09-27T13:51:39;3.00;;;1.08;;
3070;SDS011;1546;47.208;9.038;2022-09-27T14:00:07;2.95;;;0.70;;
3070;SDS011;1546;47.208;9.038;2022-09-27T14:02:38;3.05;;;0.70;;
3070;SDS011;1546;47.208;9.038;2022-09-27T14:05:16;5.38;;;0.80;;
3070;SDS011;1546;47.208;9.038;2022-09-27T14:07:46;2.97;;;0.57;;
3070;SDS011;1546;47.208;9.038;2022-09-27T14:10:17;3.63;;;0.63;;
3070;SDS011;1546;47.208;9.038;2022-09-27T14:12:47;2.58;;;0.60;;
3070;SDS011;1546;47.208;9.038;2022-09-27T14:15:17;2.38;;;0.60;;
3070;SDS011;1546;47.208;9.038;2022-09-27T14:17:46;2.40;;;0.60;;
3070;SDS011;1546;47.208;9.038;2022-09-27T14:20:30;5.85;;;0.77;;
3070;SDS011;1546;47.208;9.038;2022-09-27T14:22:58;3.45;;;1.00;;
3070;SDS011;1546;47.208;9.038;2022-09-27T14:25:27;3.35;;;0.70;;
3070;SDS011;1546;47.208;9.038;2022-09-27T14:27:54;2.50;;;0.60;;
3070;SDS011;1546;47.208;9.038;2022-09-27T14:30:23;3.22;;;0.93;;
3070;SDS011;1546;47.208;9.038;2022-09-27T14:32:53;3.03;;;0.77;;
3070;SDS011;1546;47.208;9.038;2022-09-27T14:35:22;2.47;;;0.65;;
3070;SDS011;1546;47.208;9.038;2022-09-27T14:38:10;2.70;;;0.70;;
3070;SDS011;1546;47.208;9.038;2022-09-27T14:40:39;2.40;;;0.60;;
3070;SDS011;1546;47.208;9.038;2022-09-27T14:43:09;3.00;;;0.70;;
3070;SDS011;1546;47.208;9.038;2022-09-27T14:45:40;2.65;;;0.70;;
3070;SDS011;1546;47.208;9.038;2022-09-27T14:48:16;3.20;;;0.85;;
3070;SDS011;1546;47.208;9.038;2022-09-27T14:50:52;3.13;;;0.90;;
3070;SDS011;1546;47.208;9.038;2022-09-27T14:53:25;3.70;;;1.20;;
3070;SDS011;1546;47.208;9.038;2022-09-27T14:55:54;2.60;;;0.85;;
3070;SDS011;1546;47.208;9.038;2022-09-27T14:58:22;3.95;;;0.88;;
3070;SDS011;1546;47.208;9.038;2022-09-27T15:00:50;2.30;;;0.60;;
3070;SDS011;1546;47.208;9.038;2022-09-27T15:03:19;2.50;;;0.70;;
3070;SDS011;1546;47.208;9.038;2022-09-27T15:05:50;3.40;;;0.70;;
3070;SDS011;1546;47.208;9.038;2022-09-27T15:08:18;2.70;;;0.70;;
3070;SDS011;1546;47.208;9.038;2022-09-27T15:10:50;3.53;;;0.70;;
3070;SDS011;1546;47.208;9.038;2022-09-27T15:13:18;3.78;;;0.90;;
3070;SDS011;1546;47.208;9.038;2022-09-27T15:15:46;3.15;;;0.88;;
3070;SDS011;1546;47.208;9.038;2022-09-27T15:18:29;3.15;;;0.90;;
3070;SDS011;1546;47.208;9.038;2022-09-27T15:21:06;2.70;;;0.70;;
3070;SDS011;1546;47.208;9.038;2022-09-27T15:23:34;2.40;;;0.65;;
3070;SDS011;1546;47.208;9.038;2022-09-27T15:26:06;3.88;;;1.08;;
3070;SDS011;1546;47.208;9.038;2022-09-27T15:28:42;2.60;;;0.90;;
3070;SDS011;1546;47.208;9.038;2022-09-27T15:31:10;3.28;;;0.80;;
3070;SDS011;1546;47.208;9.038;2022-09-27T15:33:38;3.47;;;0.80;;
3070;SDS011;1546;47.208;9.038;2022-09-27T15:36:06;7.13;;;1.20;;
3070;SDS011;1546;47.208;9.038;2022-09-27T15:38:35;3.58;;;1.00;;
3070;SDS011;1546;47.208;9.038;2022-09-27T15:41:10;3.85;;;0.70;;
3070;SDS011;1546;47.208;9.038;2022-09-27T15:43:45;2.78;;;0.80;;
3070;SDS011;1546;47.208;9.038;2022-09-27T15:46:26;2.65;;;0.80;;
3070;SDS011;1546;47.208;9.038;2022-09-27T15:51:56;3.10;;;0.98;;
3070;SDS011;1546;47.208;9.038;2022-09-27T15:54:24;6.47;;;2.97;;
3070;SDS011;1546;47.208;9.038;2022-09-27T15:56:55;2.78;;;1.05;;
3070;SDS011;1546;47.208;9.038;2022-09-27T15:59:29;3.10;;;1.13;;
3070;SDS011;1546;47.208;9.038;2022-09-27T16:01:57;4.65;;;1.20;;
3070;SDS011;1546;47.208;9.038;2022-09-27T16:04:26;3.28;;;1.52;;
3070;SDS011;1546;47.208;9.038;2022-09-27T16:06:55;3.42;;;0.75;;
3070;SDS011;1546;47.208;9.038;2022-09-27T16:09:24;2.47;;;0.73;;